createdAt,value
2023-04-29T00:01:42.691Z,100.00
2023-04-29T00:04:10.276Z,99.30
2023-04-29T00:06:37.931Z,97.72
2023-04-29T00:09:05.549Z,98.59
2023-04-29T00:11:33.159Z,97.51
2023-04-29T00:14:01.199Z,96.42
2023-04-29T00:16:28.819Z,96.14
2023-04-29T00:18:57.740Z,96.39
2023-04-29T00:21:27.313Z,97.10
2023-04-29T00:23:54.755Z,96.66
2023-04-29T00:26:22.201Z,96.14
2023-04-29T00:28:49.711Z,96.58
2023-04-29T00:31:17.212Z,96.33
2023-04-29T00:33:45.778Z,96.74
2023-04-29T00:36:14.557Z,97.03
2023-04-29T00:38:42.012Z,96.68
2023-04-29T00:41:09.585Z,96.78
2023-04-29T00:43:37.099Z,97.15
2023-04-29T00:46:04.951Z,96.80
2023-04-29T00:48:33.029Z,96.93
2023-04-29T00:51:00.635Z,96.85
2023-04-29T00:53:29.519Z,96.45
2023-04-29T00:55:57.196Z,96.63
2023-04-29T00:58:33.418Z,96.59
2023-04-29T01:01:01.057Z,95.68
2023-04-29T01:03:29.679Z,95.54
2023-04-29T01:06:04.290Z,95.16
2023-04-29T01:08:39.889Z,95.79
2023-04-29T01:11:10.750Z,95.94
2023-04-29T01:13:44.814Z,96.36
2023-04-29T01:16:14.259Z,96.97
2023-04-29T01:18:45.493Z,97.80
2023-04-29T01:21:12.979Z,97.42
2023-04-29T01:23:41.812Z,98.38
2023-04-29T01:26:09.310Z,98.43
2023-04-29T01:28:44.471Z,98.70
2023-04-29T01:31:16.741Z,98.27
2023-04-29T01:33:49.534Z,99.12
2023-04-29T01:36:27.708Z,97.32
2023-04-29T01:39:03.518Z,96.72
2023-04-29T01:41:37.119Z,96.42
2023-04-29T01:44:05.140Z,96.87
2023-04-29T01:46:33.230Z,96.02
2023-04-29T01:49:00.864Z,95.89
2023-04-29T01:51:28.329Z,96.60
2023-04-29T01:53:57.468Z,97.05
2023-04-29T01:56:24.951Z,96.64
2023-04-29T01:58:52.412Z,97.48
2023-04-29T02:01:19.906Z,96.91
2023-04-29T02:03:47.493Z,97.37
2023-04-29T02:06:15.033Z,97.25
2023-04-29T02:08:42.606Z,96.75
2023-04-29T02:11:11.399Z,94.79
2023-04-29T02:13:38.912Z,94.09
2023-04-29T02:16:10.013Z,95.02
2023-04-29T02:18:37.711Z,93.94
2023-04-29T02:21:05.502Z,93.92
2023-04-29T02:23:33.001Z,94.69
2023-04-29T02:26:01.559Z,95.31
2023-04-29T02:28:30.331Z,95.32
2023-04-29T02:30:57.765Z,95.21
2023-04-29T02:33:25.317Z,95.66
2023-04-29T02:35:52.836Z,94.62
2023-04-29T02:38:20.935Z,94.84
2023-04-29T02:40:48.741Z,94.88
2023-04-29T02:43:16.203Z,94.26
2023-04-29T02:45:45.034Z,94.02
2023-04-29T02:48:12.602Z,94.54
2023-04-29T02:50:40.124Z,93.92
2023-04-29T02:53:07.684Z,94.34
2023-04-29T02:55:35.156Z,94.81
2023-04-29T02:58:04.178Z,95.17
2023-04-29T03:00:31.724Z,94.72
2023-04-29T03:03:01.614Z,94.82
2023-04-29T03:05:29.267Z,93.86
2023-04-29T03:07:56.698Z,93.58
2023-04-29T03:10:24.163Z,94.06
2023-04-29T03:12:51.602Z,93.48
2023-04-29T03:15:19.516Z,93.55
2023-04-29T03:17:47.150Z,93.21
2023-04-29T03:20:15.971Z,92.95
2023-04-29T03:22:43.440Z,92.28
2023-04-29T03:25:11.562Z,93.84
2023-04-29T03:27:39.037Z,94.32
2023-04-29T03:30:08.026Z,93.87
2023-04-29T03:32:35.532Z,94.04
2023-04-29T03:35:03.378Z,92.52
2023-04-29T03:37:32.166Z,93.26
2023-04-29T03:39:59.610Z,91.96
2023-04-29T03:42:27.038Z,92.54
2023-04-29T03:44:54.481Z,91.76
2023-04-29T03:47:21.970Z,91.60
2023-04-29T03:49:49.553Z,91.58
2023-04-29T03:52:17.169Z,91.00
2023-04-29T03:54:46.277Z,89.18
2023-04-29T03:57:13.705Z,88.88
2023-04-29T03:59:41.228Z,87.69
2023-04-29T04:02:09.224Z,87.58
2023-04-29T04:04:36.916Z,87.58
2023-04-29T04:07:04.682Z,87.56
2023-04-29T04:09:33.406Z,87.05
2023-04-29T04:12:02.353Z,87.50
2023-04-29T04:14:30.248Z,87.43
2023-04-29T04:16:57.691Z,86.76
2023-04-29T04:19:25.456Z,87.28
2023-04-29T04:21:52.940Z,86.13
2023-04-29T04:24:20.405Z,86.36
2023-04-29T04:26:47.906Z,86.69
2023-04-29T04:29:16.684Z,85.95
2023-04-29T04:31:46.804Z,85.12
2023-04-29T04:34:14.646Z,84.31
2023-04-29T04:36:42.383Z,84.94
2023-04-29T04:39:09.975Z,83.91
2023-04-29T04:41:37.422Z,83.67
2023-04-29T04:44:05.542Z,84.24
2023-04-29T04:46:35.035Z,84.71
2023-04-29T04:49:02.493Z,84.81
2023-04-29T04:51:29.952Z,84.99
2023-04-29T04:53:57.394Z,84.30
2023-04-29T04:56:24.836Z,86.06
2023-04-29T04:58:52.292Z,85.90
2023-04-29T05:01:19.786Z,87.16
2023-04-29T05:03:48.789Z,86.40
2023-04-29T05:06:16.427Z,87.04
2023-04-29T05:08:43.890Z,84.66
2023-04-29T05:11:17.597Z,84.62
2023-04-29T05:13:45.066Z,83.99
2023-04-29T05:16:12.553Z,83.69
2023-04-29T05:18:40.016Z,82.68
2023-04-29T05:21:08.832Z,83.03
2023-04-29T05:23:36.274Z,81.55
2023-04-29T05:26:03.728Z,82.07
2023-04-29T05:28:31.223Z,81.70
2023-04-29T05:30:58.810Z,80.92
2023-04-29T05:33:26.289Z,79.89
2023-04-29T05:35:53.750Z,80.06
2023-04-29T05:38:28.684Z,79.30
2023-04-29T05:40:56.348Z,79.63
2023-04-29T05:43:23.804Z,78.77
2023-04-29T05:45:51.360Z,78.48
2023-04-29T05:48:18.832Z,77.46
2023-04-29T05:50:48.105Z,77.86
2023-04-29T05:53:15.567Z,77.65
2023-04-29T05:55:45.176Z,76.96
2023-04-29T05:58:13.215Z,77.19
2023-04-29T06:00:40.793Z,77.14
2023-04-29T06:03:08.371Z,76.45
2023-04-29T06:05:36.353Z,76.52
2023-04-29T06:08:04.818Z,76.21
2023-04-29T06:10:33.238Z,75.80
2023-04-29T06:13:02.114Z,76.48
2023-04-29T06:15:29.638Z,76.57
2023-04-29T06:17:57.343Z,76.19
2023-04-29T06:20:25.013Z,75.50
2023-04-29T06:22:52.463Z,76.15
2023-04-29T06:25:19.914Z,76.68
2023-04-29T06:27:47.581Z,74.79
2023-04-29T06:30:16.449Z,74.99
2023-04-29T06:32:43.969Z,74.13
2023-04-29T06:35:11.556Z,73.20
2023-04-29T06:37:38.998Z,73.20
2023-04-29T06:40:07.848Z,71.08
2023-04-29T06:42:36.683Z,72.06
2023-04-29T06:45:05.254Z,72.44
2023-04-29T06:47:34.168Z,72.88
2023-04-29T06:50:01.941Z,71.22
2023-04-29T06:52:29.656Z,71.91
2023-04-29T06:54:57.157Z,71.77
2023-04-29T06:57:24.707Z,71.07
2023-04-29T06:59:52.547Z,70.94
2023-04-29T07:02:20.169Z,71.17
2023-04-29T07:04:50.232Z,71.10
2023-04-29T07:07:17.873Z,70.64
2023-04-29T07:09:45.616Z,70.69
2023-04-29T07:12:13.051Z,71.15
2023-04-29T07:14:40.854Z,71.69
2023-04-29T07:17:08.336Z,71.23
2023-04-29T07:19:35.899Z,71.24
2023-04-29T07:22:04.956Z,71.21
2023-04-29T07:24:32.416Z,71.51
2023-04-29T07:26:59.910Z,72.10
2023-04-29T07:29:27.355Z,71.61
2023-04-29T07:31:54.861Z,72.67
2023-04-29T07:34:22.349Z,72.15
2023-04-29T07:36:49.786Z,72.09
2023-04-29T07:39:18.689Z,72.20
2023-04-29T07:41:46.208Z,71.84
2023-04-29T07:44:13.762Z,72.44
2023-04-29T07:46:41.887Z,72.13
2023-04-29T07:49:10.248Z,71.81
2023-04-29T07:51:37.711Z,72.23
2023-04-29T07:54:05.414Z,72.79
2023-04-29T07:56:34.280Z,72.99
2023-04-29T07:59:01.788Z,72.97
2023-04-29T08:01:29.285Z,73.13
2023-04-29T08:03:56.971Z,73.78
2023-04-29T08:06:24.722Z,73.61
2023-04-29T08:08:52.783Z,73.38
2023-04-29T08:11:21.374Z,73.16
2023-04-29T08:13:50.170Z,74.29
2023-04-29T08:16:17.843Z,74.17
2023-04-29T08:18:45.389Z,74.22
2023-04-29T08:21:12.852Z,73.48
2023-04-29T08:23:40.553Z,73.65
2023-04-29T08:26:08.047Z,74.42
2023-04-29T08:28:35.488Z,74.47
2023-04-29T08:31:07.015Z,74.01
2023-04-29T08:33:34.478Z,74.27
2023-04-29T08:36:03.762Z,73.83
2023-04-29T08:38:31.916Z,74.95
2023-04-29T08:40:59.592Z,73.84
2023-04-29T08:43:27.831Z,74.68
2023-04-29T08:45:56.316Z,74.77
2023-04-29T08:48:26.058Z,74.50
2023-04-29T08:50:53.604Z,73.88
2023-04-29T08:53:21.658Z,74.48
2023-04-29T08:55:49.489Z,74.10
2023-04-29T08:58:17.546Z,74.88
2023-04-29T09:00:45.401Z,73.98
2023-04-29T09:03:18.311Z,73.71
2023-04-29T09:05:50.304Z,73.82
2023-04-29T09:08:18.382Z,74.71
2023-04-29T09:10:45.896Z,74.44
2023-04-29T09:13:24.386Z,73.86
2023-04-29T09:15:51.937Z,73.23
2023-04-29T09:18:42.382Z,73.92
2023-04-29T09:21:15.911Z,73.50
2023-04-29T09:23:43.616Z,74.09
2023-04-29T09:26:11.054Z,74.24
2023-04-29T09:28:39.772Z,74.52
2023-04-29T09:31:08.553Z,75.51
2023-04-29T09:33:50.652Z,74.51
2023-04-29T09:39:16.471Z,74.01
2023-04-29T09:41:59.181Z,75.15
2023-04-29T09:44:29.490Z,75.27
2023-04-29T09:46:59.545Z,74.49
2023-04-29T09:49:28.234Z,74.78
2023-04-29T09:51:59.411Z,75.15
2023-04-29T09:54:29.416Z,74.70
2023-04-29T09:56:58.237Z,74.70
2023-04-29T09:59:26.833Z,75.08
2023-04-29T10:01:55.911Z,74.61
2023-04-29T10:04:24.881Z,75.00
2023-04-29T10:06:53.853Z,74.54
2023-04-29T10:09:22.854Z,73.96
2023-04-29T10:11:53.347Z,73.82
2023-04-29T10:14:22.398Z,74.24
2023-04-29T10:16:51.780Z,73.94
2023-04-29T10:19:27.554Z,73.61
2023-04-29T10:21:56.197Z,73.30
2023-04-29T10:24:23.722Z,73.71
2023-04-29T10:26:53.564Z,72.30
2023-04-29T10:29:23.471Z,73.03
2023-04-29T10:31:51.757Z,72.50
2023-04-29T10:34:19.726Z,71.98
2023-04-29T10:36:48.031Z,72.56
2023-04-29T10:39:24.338Z,72.57
2023-04-29T10:41:53.898Z,70.60
2023-04-29T10:44:21.322Z,71.97
2023-04-29T10:46:48.847Z,71.34
2023-04-29T10:49:16.324Z,70.44
2023-04-29T10:51:45.540Z,67.87
2023-04-29T10:54:14.731Z,66.94
2023-04-29T10:56:44.114Z,68.21
2023-04-29T10:59:14.267Z,67.98
2023-04-29T11:01:46.795Z,66.44
2023-04-29T11:04:14.588Z,66.16
2023-04-29T11:06:45.209Z,67.32
2023-04-29T11:09:14.971Z,63.50
2023-04-29T11:12:03.121Z,61.09
2023-04-29T11:14:34.191Z,62.03
2023-04-29T11:17:03.455Z,61.07
2023-04-29T11:19:35.266Z,62.86
2023-04-29T11:22:11.714Z,62.83
2023-04-29T11:24:50.419Z,62.72
2023-04-29T11:27:19.338Z,63.40
2023-04-29T11:29:48.349Z,65.58
2023-04-29T11:32:15.877Z,64.82
2023-04-29T11:34:43.319Z,64.08
2023-04-29T11:37:11.526Z,61.17
2023-04-29T11:39:39.008Z,61.27
2023-04-29T11:42:07.058Z,62.48
2023-04-29T11:44:35.823Z,62.76
2023-04-29T11:47:05.210Z,62.38
2023-04-29T11:49:33.394Z,60.06
2023-04-29T11:52:01.029Z,62.26
2023-04-29T11:54:28.722Z,62.71
2023-04-29T11:56:56.513Z,60.15
2023-04-29T11:59:24.047Z,62.21
2023-04-29T12:01:52.015Z,62.29
2023-04-29T12:04:21.060Z,59.72
2023-04-29T12:06:52.518Z,61.92
2023-04-29T12:09:20.378Z,61.06
2023-04-29T12:11:48.215Z,59.19
2023-04-29T12:14:15.758Z,58.90
2023-04-29T12:16:43.516Z,59.68
2023-04-29T12:19:11.977Z,58.45
2023-04-29T12:21:49.408Z,58.73
2023-04-29T12:24:17.478Z,57.79
2023-04-29T12:26:46.457Z,60.01
2023-04-29T12:29:14.348Z,58.28
2023-04-29T12:31:41.985Z,59.79
2023-04-29T12:34:10.199Z,60.52
2023-04-29T12:36:38.066Z,60.47
2023-04-29T12:39:10.763Z,60.78
2023-04-29T12:41:39.260Z,60.72
2023-04-29T12:44:07.395Z,60.08
2023-04-29T12:46:38.878Z,58.94
2023-04-29T12:49:06.787Z,60.15
2023-04-29T12:51:34.836Z,59.99
2023-04-29T12:54:06.187Z,62.07
2023-04-29T12:56:35.002Z,62.87
2023-04-29T12:59:09.871Z,63.70
2023-04-29T13:01:37.696Z,63.29
2023-04-29T13:04:08.700Z,62.24
2023-04-29T13:06:39.424Z,61.45
2023-04-29T13:09:07.688Z,61.25
2023-04-29T13:11:36.930Z,60.73
2023-04-29T13:14:05.119Z,61.11
2023-04-29T13:16:33.123Z,60.83
2023-04-29T13:19:12.414Z,60.57
2023-04-29T13:21:48.548Z,61.02
2023-04-29T13:24:18.204Z,59.96
2023-04-29T13:26:49.580Z,59.01
2023-04-29T13:29:18.447Z,59.31
2023-04-29T13:31:46.035Z,59.01
2023-04-29T13:34:13.648Z,59.57
2023-04-29T13:36:41.140Z,58.80
2023-04-29T13:39:08.871Z,59.49
2023-04-29T13:41:36.379Z,59.51
2023-04-29T13:44:11.242Z,60.15
2023-04-29T13:46:49.105Z,61.28
2023-04-29T13:49:45.424Z,61.41
2023-04-29T13:53:00.751Z,61.62
2023-04-29T13:55:18.542Z,62.04
2023-04-29T13:58:31.130Z,61.35
2023-04-29T14:05:28.886Z,62.79
2023-04-29T14:07:56.483Z,62.53
2023-04-29T14:10:24.046Z,62.82
2023-04-29T14:12:51.496Z,61.32
2023-04-29T14:15:18.965Z,61.11
2023-04-29T14:17:50.049Z,60.27
2023-04-29T14:20:17.523Z,59.99
2023-04-29T14:22:45.234Z,59.88
2023-04-29T14:25:13.568Z,60.58
2023-04-29T14:27:41.057Z,60.71
2023-04-29T14:30:09.661Z,60.71
2023-04-29T14:32:37.132Z,60.39
2023-04-29T14:35:06.905Z,60.01
2023-04-29T14:37:34.345Z,60.64
2023-04-29T14:40:01.852Z,60.59
2023-04-29T14:42:29.311Z,61.09
2023-04-29T14:44:56.856Z,60.49
2023-04-29T14:47:24.450Z,60.87
2023-04-29T14:49:51.917Z,60.21
2023-04-29T14:52:20.687Z,60.60
2023-04-29T14:54:48.156Z,61.21
2023-04-29T14:57:15.610Z,61.79
2023-04-29T14:59:43.070Z,61.41
2023-04-29T15:02:10.617Z,62.26
2023-04-29T15:04:39.698Z,62.18
2023-04-29T15:07:07.298Z,62.27
2023-04-29T15:09:36.323Z,61.51
2023-04-29T15:12:04.470Z,62.21
2023-04-29T15:14:31.946Z,62.07
2023-04-29T15:16:59.396Z,62.03
2023-04-29T15:19:26.870Z,62.28
2023-04-29T15:21:54.405Z,62.69
2023-04-29T15:24:21.818Z,62.55
2023-04-29T15:26:51.905Z,62.54
2023-04-29T15:29:19.348Z,63.28
2023-04-29T15:31:47.122Z,62.57
2023-04-29T15:34:14.577Z,62.76
2023-04-29T15:36:42.818Z,63.33
2023-04-29T15:39:11.294Z,63.39
2023-04-29T15:41:38.955Z,63.52
2023-04-29T15:44:07.810Z,64.69
2023-04-29T15:46:35.276Z,66.23
2023-04-29T15:49:04.420Z,66.95
2023-04-29T15:51:32.392Z,66.80
2023-04-29T15:54:00.018Z,67.33
2023-04-29T15:56:27.461Z,67.40
2023-04-29T15:58:54.910Z,68.14
2023-04-29T16:01:23.800Z,68.00
2023-04-29T16:03:51.401Z,67.75
2023-04-29T16:06:18.972Z,68.00
2023-04-29T16:08:46.901Z,68.07
2023-04-29T16:11:14.359Z,67.54
2023-04-29T16:13:41.782Z,66.42
2023-04-29T16:16:09.382Z,66.48
2023-04-29T16:18:39.603Z,66.28
2023-04-29T16:21:07.098Z,66.81
2023-04-29T16:23:34.659Z,66.90
2023-04-29T16:26:02.321Z,67.09
2023-04-29T16:28:29.784Z,67.54
2023-04-29T16:30:57.228Z,66.93
2023-04-29T16:33:24.691Z,67.02
2023-04-29T16:35:53.886Z,67.10
2023-04-29T16:38:21.585Z,66.83
2023-04-29T16:40:50.643Z,67.12
2023-04-29T16:43:19.047Z,67.49
2023-04-29T16:45:46.496Z,66.38
2023-04-29T16:48:13.970Z,66.14
2023-04-29T16:50:41.394Z,66.61
2023-04-29T16:53:10.145Z,66.76
2023-04-29T16:55:37.593Z,65.98
2023-04-29T16:58:05.367Z,65.90
2023-04-29T17:00:32.939Z,65.73
2023-04-29T17:03:00.724Z,65.40
2023-04-29T17:05:28.226Z,65.79
2023-04-29T17:07:55.988Z,66.00
2023-04-29T17:10:25.180Z,66.34
2023-04-29T17:12:53.071Z,66.78
2023-04-29T17:15:20.554Z,66.55
2023-04-29T17:17:48.049Z,66.56
2023-04-29T17:20:15.540Z,66.61
2023-04-29T17:22:43.008Z,67.16
2023-04-29T17:25:10.864Z,66.78
2023-04-29T17:27:39.628Z,66.54
2023-04-29T17:30:08.639Z,67.08
2023-04-29T17:32:39.095Z,66.64
2023-04-29T17:35:07.900Z,66.36
2023-04-29T17:37:36.098Z,66.88
2023-04-29T17:40:04.296Z,67.46
2023-04-29T17:42:31.863Z,67.34
2023-04-29T17:45:00.703Z,67.52
2023-04-29T17:47:28.209Z,67.81
2023-04-29T17:49:56.325Z,67.95
2023-04-29T17:52:24.770Z,67.54
2023-04-29T17:54:52.206Z,67.63
2023-04-29T17:57:19.674Z,67.59
2023-04-29T17:59:47.522Z,67.37
2023-04-29T18:02:16.356Z,67.18
2023-04-29T18:04:43.896Z,67.19
2023-04-29T18:07:11.385Z,67.50
2023-04-29T18:09:39.237Z,67.47
2023-04-29T18:12:06.820Z,67.67
2023-04-29T18:14:34.283Z,68.01
2023-04-29T18:17:01.792Z,67.61
2023-04-29T18:19:30.618Z,67.75
2023-04-29T18:21:59.129Z,67.40
2023-04-29T18:24:27.734Z,67.60
2023-04-29T18:26:56.670Z,67.13
2023-04-29T18:29:24.252Z,67.67
2023-04-29T18:31:54.488Z,67.36
2023-04-29T18:34:22.063Z,67.80
2023-04-29T18:36:51.205Z,67.59
2023-04-29T18:39:18.688Z,67.64
2023-04-29T18:41:46.186Z,67.94
2023-04-29T18:44:13.732Z,68.05
2023-04-29T18:46:41.534Z,67.62
2023-04-29T18:49:11.696Z,67.71
2023-04-29T18:51:40.386Z,67.77
2023-04-29T18:54:09.459Z,67.92
2023-04-29T18:56:38.914Z,68.17
2023-04-29T18:59:08.715Z,68.23
2023-04-29T19:01:36.213Z,68.50
2023-04-29T19:04:05.889Z,68.28
2023-04-29T19:06:34.571Z,68.54
2023-04-29T19:09:02.094Z,68.29
2023-04-29T19:11:31.510Z,68.33
2023-04-29T19:13:59.073Z,68.51
2023-04-29T19:16:26.687Z,68.38
2023-04-29T19:18:54.194Z,68.66
2023-04-29T19:21:21.849Z,68.44
2023-04-29T19:23:49.329Z,68.87
2023-04-29T19:26:16.856Z,69.06
2023-04-29T19:28:45.679Z,69.05
2023-04-29T19:31:13.226Z,69.02
2023-04-29T19:33:40.703Z,69.06
2023-04-29T19:36:08.336Z,69.30
2023-04-29T19:38:36.350Z,69.18
2023-04-29T19:41:03.875Z,69.45
2023-04-29T19:43:31.732Z,69.35
2023-04-29T19:46:00.532Z,68.96
2023-04-29T19:48:28.188Z,69.41
2023-04-29T19:50:59.404Z,69.96
2023-04-29T19:53:26.976Z,69.66
2023-04-29T19:55:54.892Z,69.67
2023-04-29T19:58:22.419Z,69.30
2023-04-29T20:00:50.025Z,69.34
2023-04-29T20:03:18.965Z,69.10
2023-04-29T20:05:47.280Z,69.52
2023-04-29T20:08:14.785Z,70.04
2023-04-29T20:10:42.323Z,70.43
2023-04-29T20:13:09.793Z,70.31
2023-04-29T20:15:37.303Z,70.83
2023-04-29T20:18:05.018Z,70.23
2023-04-29T20:20:33.892Z,70.07
2023-04-29T20:23:01.445Z,70.13
2023-04-29T20:25:28.971Z,70.05
2023-04-29T20:27:56.764Z,69.85
2023-04-29T20:30:25.764Z,70.35
2023-04-29T20:32:53.294Z,70.28
2023-04-29T20:35:21.573Z,70.19
2023-04-29T20:37:50.398Z,70.14
2023-04-29T20:40:18.320Z,70.12
2023-04-29T20:42:45.834Z,69.99
2023-04-29T20:45:13.489Z,70.44
2023-04-29T20:47:41.079Z,70.55
2023-04-29T20:50:09.379Z,70.37
2023-04-29T20:52:37.939Z,70.31
2023-04-29T20:55:07.272Z,70.25
2023-04-29T20:57:34.727Z,70.54
2023-04-29T21:00:02.186Z,70.56
2023-04-29T21:02:29.699Z,70.10
2023-04-29T21:04:57.348Z,70.70
2023-04-29T21:07:24.830Z,70.54
2023-04-29T21:09:52.454Z,70.69
2023-04-29T21:12:21.462Z,70.60
2023-04-29T21:14:48.999Z,70.75
2023-04-29T21:17:16.526Z,70.76
2023-04-29T21:19:44.186Z,70.52
2023-04-29T21:22:11.696Z,70.83
2023-04-29T21:24:39.135Z,70.80
2023-04-29T21:27:06.817Z,70.83
2023-04-29T21:29:40.483Z,71.56
2023-04-29T21:32:08.425Z,71.31
2023-04-29T21:34:36.019Z,71.62
2023-04-29T21:37:03.501Z,72.32
2023-04-29T21:39:31.991Z,71.66
2023-04-29T21:42:00.593Z,71.34
2023-04-29T21:44:28.052Z,71.54
2023-04-29T21:46:59.559Z,71.45
2023-04-29T21:49:28.337Z,71.37
2023-04-29T21:51:56.086Z,70.90
2023-04-29T21:54:23.531Z,72.08
2023-04-29T21:56:50.965Z,71.95
2023-04-29T21:59:18.424Z,72.73
2023-04-29T22:02:00.019Z,72.14
2023-04-29T22:04:29.223Z,72.18
2023-04-29T22:06:57.170Z,72.03
2023-04-29T22:09:24.618Z,72.13
2023-04-29T22:11:52.053Z,72.33
2023-04-29T22:14:19.495Z,71.61
2023-04-29T22:16:47.010Z,71.58
2023-04-29T22:19:14.526Z,71.79
2023-04-29T22:21:43.391Z,71.88
2023-04-29T22:24:10.969Z,71.84
2023-04-29T22:26:38.422Z,72.11
2023-04-29T22:29:05.899Z,71.94
2023-04-29T22:31:33.359Z,72.25
2023-04-29T22:34:00.831Z,72.40
2023-04-29T22:36:28.328Z,72.50
2023-04-29T22:38:57.148Z,72.59
2023-04-29T22:41:24.598Z,72.66
2023-04-29T22:43:56.923Z,72.79
2023-04-29T22:46:24.652Z,72.58
2023-04-29T22:48:52.176Z,72.51
2023-04-29T22:51:21.713Z,72.61
2023-04-29T22:53:49.303Z,72.41
2023-04-29T22:56:18.172Z,73.07
2023-04-29T22:58:45.712Z,73.30
2023-04-29T23:01:13.288Z,72.97
2023-04-29T23:03:41.028Z,73.14
2023-04-29T23:06:08.537Z,73.59
2023-04-29T23:08:36.163Z,73.56
2023-04-29T23:11:03.661Z,73.97
2023-04-29T23:13:32.877Z,73.66
2023-04-29T23:16:01.094Z,73.88
2023-04-29T23:18:28.670Z,74.16
2023-04-29T23:20:56.863Z,73.77
2023-04-29T23:23:24.362Z,73.93
2023-04-29T23:25:51.897Z,74.37
2023-04-29T23:28:19.314Z,74.48
2023-04-29T23:30:48.958Z,74.44
2023-04-29T23:33:16.397Z,74.23
2023-04-29T23:35:49.539Z,73.96
2023-04-29T23:38:17.160Z,73.54
2023-04-29T23:40:44.744Z,74.00
2023-04-29T23:43:12.194Z,73.97
2023-04-29T23:45:39.706Z,73.90
2023-04-29T23:48:09.351Z,74.03
2023-04-29T23:50:36.998Z,73.94
2023-04-29T23:53:04.564Z,73.85
2023-04-29T23:55:32.253Z,73.85
2023-04-29T23:57:59.855Z,74.09
